sensor_id;sensor_type;location;lat;lon;timestamp;P1;durP1;ratioP1;P2;durP2;ratioP2
25615;SDS011;13482;48.234;13.006;2023-05-10T00:00:28;3.40;;;2.03;;
25615;SDS011;13482;48.234;13.006;2023-05-10T00:02:55;2.67;;;1.92;;
25615;SDS011;13482;48.234;13.006;2023-05-10T00:05:23;3.10;;;2.08;;
25615;SDS011;13482;48.234;13.006;2023-05-10T00:07:50;3.00;;;2.17;;
25615;SDS011;13482;48.234;13.006;2023-05-10T00:10:17;2.72;;;2.08;;
25615;SDS011;13482;48.234;13.006;2023-05-10T00:12:44;2.65;;;2.05;;
25615;SDS011;13482;48.234;13.006;2023-05-10T00:15:11;3.33;;;2.20;;
25615;SDS011;13482;48.234;13.006;2023-05-10T00:17:38;2.90;;;2.22;;
25615;SDS011;13482;48.234;13.006;2023-05-10T00:20:06;2.78;;;2.22;;
25615;SDS011;13482;48.234;13.006;2023-05-10T00:22:33;2.80;;;2.25;;
25615;SDS011;13482;48.234;13.006;2023-05-10T00:25:01;3.95;;;2.33;;
25615;SDS011;13482;48.234;13.006;2023-05-10T00:27:28;2.97;;;2.28;;
25615;SDS011;13482;48.234;13.006;2023-05-10T00:29:55;2.72;;;1.98;;
25615;SDS011;13482;48.234;13.006;2023-05-10T00:32:22;2.70;;;2.05;;
25615;SDS011;13482;48.234;13.006;2023-05-10T00:34:49;2.70;;;1.95;;
25615;SDS011;13482;48.234;13.006;2023-05-10T00:37:16;3.65;;;2.00;;
25615;SDS011;13482;48.234;13.006;2023-05-10T00:39:44;3.67;;;2.15;;
25615;SDS011;13482;48.234;13.006;2023-05-10T00:42:11;2.97;;;2.28;;
25615;SDS011;13482;48.234;13.006;2023-05-10T00:44:38;3.47;;;2.28;;
25615;SDS011;13482;48.234;13.006;2023-05-10T00:47:05;2.90;;;2.22;;
25615;SDS011;13482;48.234;13.006;2023-05-10T00:49:33;2.92;;;2.35;;
25615;SDS011;13482;48.234;13.006;2023-05-10T00:52:01;3.58;;;2.28;;
25615;SDS011;13482;48.234;13.006;2023-05-10T00:54:29;3.10;;;2.42;;
25615;SDS011;13482;48.234;13.006;2023-05-10T00:56:56;3.53;;;2.60;;
25615;SDS011;13482;48.234;13.006;2023-05-10T00:59:25;3.20;;;2.03;;
25615;SDS011;13482;48.234;13.006;2023-05-10T01:01:52;3.13;;;2.05;;
25615;SDS011;13482;48.234;13.006;2023-05-10T01:04:20;3.47;;;2.20;;
25615;SDS011;13482;48.234;13.006;2023-05-10T01:06:52;3.05;;;2.17;;
25615;SDS011;13482;48.234;13.006;2023-05-10T01:09:20;3.88;;;2.40;;
25615;SDS011;13482;48.234;13.006;2023-05-10T01:11:48;2.80;;;2.33;;
25615;SDS011;13482;48.234;13.006;2023-05-10T01:14:16;3.22;;;2.13;;
25615;SDS011;13482;48.234;13.006;2023-05-10T01:16:46;3.03;;;2.25;;
25615;SDS011;13482;48.234;13.006;2023-05-10T01:28:17;3.25;;;2.53;;
25615;SDS011;13482;48.234;13.006;2023-05-10T01:34:23;2.80;;;2.08;;
25615;SDS011;13482;48.234;13.006;2023-05-10T01:37:04;3.58;;;2.15;;
25615;SDS011;13482;48.234;13.006;2023-05-10T01:39:44;2.63;;;2.13;;
25615;SDS011;13482;48.234;13.006;2023-05-10T01:42:23;2.97;;;1.67;;
25615;SDS011;13482;48.234;13.006;2023-05-10T01:45:00;3.30;;;2.28;;
25615;SDS011;13482;48.234;13.006;2023-05-10T01:50:11;2.45;;;2.13;;
25615;SDS011;13482;48.234;13.006;2023-05-10T01:52:47;3.50;;;2.38;;
25615;SDS011;13482;48.234;13.006;2023-05-10T01:55:21;3.38;;;2.10;;
25615;SDS011;13482;48.234;13.006;2023-05-10T01:57:56;4.90;;;2.20;;
25615;SDS011;13482;48.234;13.006;2023-05-10T02:00:31;2.90;;;2.10;;
25615;SDS011;13482;48.234;13.006;2023-05-10T02:03:00;2.67;;;1.95;;
25615;SDS011;13482;48.234;13.006;2023-05-10T02:05:33;3.10;;;2.17;;
25615;SDS011;13482;48.234;13.006;2023-05-10T02:08:01;3.58;;;2.35;;
25615;SDS011;13482;48.234;13.006;2023-05-10T02:10:33;4.30;;;2.15;;
25615;SDS011;13482;48.234;13.006;2023-05-10T02:13:01;2.47;;;2.03;;
25615;SDS011;13482;48.234;13.006;2023-05-10T02:15:29;3.50;;;2.63;;
25615;SDS011;13482;48.234;13.006;2023-05-10T02:17:58;3.83;;;2.35;;
25615;SDS011;13482;48.234;13.006;2023-05-10T02:20:27;3.42;;;2.70;;
25615;SDS011;13482;48.234;13.006;2023-05-10T02:22:55;2.83;;;1.95;;
25615;SDS011;13482;48.234;13.006;2023-05-10T02:25:23;2.60;;;2.00;;
25615;SDS011;13482;48.234;13.006;2023-05-10T02:27:55;2.63;;;2.10;;
25615;SDS011;13482;48.234;13.006;2023-05-10T02:30:24;2.90;;;2.35;;
25615;SDS011;13482;48.234;13.006;2023-05-10T02:32:52;2.92;;;2.35;;
25615;SDS011;13482;48.234;13.006;2023-05-10T02:35:21;8.68;;;2.38;;
25615;SDS011;13482;48.234;13.006;2023-05-10T02:37:49;3.45;;;2.65;;
25615;SDS011;13482;48.234;13.006;2023-05-10T02:40:17;4.18;;;2.45;;
25615;SDS011;13482;48.234;13.006;2023-05-10T02:42:46;3.97;;;2.55;;
25615;SDS011;13482;48.234;13.006;2023-05-10T02:45:17;3.05;;;2.25;;
25615;SDS011;13482;48.234;13.006;2023-05-10T02:47:47;3.13;;;2.20;;
25615;SDS011;13482;48.234;13.006;2023-05-10T02:50:15;3.20;;;2.60;;
25615;SDS011;13482;48.234;13.006;2023-05-10T02:52:44;3.17;;;2.40;;
25615;SDS011;13482;48.234;13.006;2023-05-10T02:55:15;3.20;;;2.53;;
25615;SDS011;13482;48.234;13.006;2023-05-10T02:57:45;3.47;;;2.70;;
25615;SDS011;13482;48.234;13.006;2023-05-10T03:00:18;6.70;;;2.97;;
25615;SDS011;13482;48.234;13.006;2023-05-10T03:02:45;3.28;;;2.58;;
25615;SDS011;13482;48.234;13.006;2023-05-10T03:05:13;3.42;;;2.60;;
25615;SDS011;13482;48.234;13.006;2023-05-10T03:07:40;3.10;;;2.58;;
25615;SDS011;13482;48.234;13.006;2023-05-10T03:10:08;3.78;;;2.78;;
25615;SDS011;13482;48.234;13.006;2023-05-10T03:20:56;4.63;;;2.90;;
25615;SDS011;13482;48.234;13.006;2023-05-10T03:26:18;3.38;;;2.50;;
25615;SDS011;13482;48.234;13.006;2023-05-10T03:28:52;4.53;;;2.50;;
25615;SDS011;13482;48.234;13.006;2023-05-10T03:31:20;4.28;;;3.08;;
25615;SDS011;13482;48.234;13.006;2023-05-10T03:33:48;3.92;;;2.72;;
25615;SDS011;13482;48.234;13.006;2023-05-10T03:36:17;4.07;;;3.08;;
25615;SDS011;13482;48.234;13.006;2023-05-10T03:38:45;3.90;;;3.03;;
25615;SDS011;13482;48.234;13.006;2023-05-10T03:41:12;4.15;;;2.90;;
25615;SDS011;13482;48.234;13.006;2023-05-10T03:43:40;4.47;;;2.67;;
25615;SDS011;13482;48.234;13.006;2023-05-10T03:46:07;3.03;;;2.65;;
25615;SDS011;13482;48.234;13.006;2023-05-10T03:48:34;3.20;;;2.53;;
25615;SDS011;13482;48.234;13.006;2023-05-10T03:51:01;3.10;;;2.70;;
25615;SDS011;13482;48.234;13.006;2023-05-10T03:53:29;3.58;;;2.70;;
25615;SDS011;13482;48.234;13.006;2023-05-10T03:55:56;4.15;;;2.80;;
25615;SDS011;13482;48.234;13.006;2023-05-10T03:58:23;3.28;;;2.63;;
25615;SDS011;13482;48.234;13.006;2023-05-10T04:00:51;3.17;;;2.58;;
25615;SDS011;13482;48.234;13.006;2023-05-10T04:03:18;3.95;;;2.53;;
25615;SDS011;13482;48.234;13.006;2023-05-10T04:05:46;3.30;;;2.63;;
25615;SDS011;13482;48.234;13.006;2023-05-10T04:08:14;3.70;;;3.10;;
25615;SDS011;13482;48.234;13.006;2023-05-10T04:10:42;4.43;;;3.00;;
25615;SDS011;13482;48.234;13.006;2023-05-10T04:13:10;3.80;;;2.85;;
25615;SDS011;13482;48.234;13.006;2023-05-10T04:15:37;4.10;;;2.92;;
25615;SDS011;13482;48.234;13.006;2023-05-10T04:18:04;3.63;;;3.15;;
25615;SDS011;13482;48.234;13.006;2023-05-10T04:20:34;4.00;;;3.40;;
25615;SDS011;13482;48.234;13.006;2023-05-10T04:23:01;3.40;;;2.47;;
25615;SDS011;13482;48.234;13.006;2023-05-10T04:25:28;3.28;;;2.83;;
25615;SDS011;13482;48.234;13.006;2023-05-10T04:27:55;3.55;;;2.92;;
25615;SDS011;13482;48.234;13.006;2023-05-10T04:30:23;3.75;;;2.90;;
25615;SDS011;13482;48.234;13.006;2023-05-10T04:32:50;3.65;;;2.70;;
25615;SDS011;13482;48.234;13.006;2023-05-10T04:35:17;3.92;;;2.70;;
25615;SDS011;13482;48.234;13.006;2023-05-10T04:37:44;3.63;;;3.00;;
25615;SDS011;13482;48.234;13.006;2023-05-10T04:40:11;3.65;;;2.92;;
25615;SDS011;13482;48.234;13.006;2023-05-10T04:42:42;3.80;;;2.70;;
25615;SDS011;13482;48.234;13.006;2023-05-10T04:45:10;3.30;;;2.90;;
25615;SDS011;13482;48.234;13.006;2023-05-10T04:47:37;3.67;;;2.67;;
25615;SDS011;13482;48.234;13.006;2023-05-10T04:50:05;4.00;;;2.88;;
25615;SDS011;13482;48.234;13.006;2023-05-10T04:52:33;3.92;;;3.20;;
25615;SDS011;13482;48.234;13.006;2023-05-10T04:55:00;3.58;;;2.70;;
25615;SDS011;13482;48.234;13.006;2023-05-10T04:57:27;3.05;;;2.63;;
25615;SDS011;13482;48.234;13.006;2023-05-10T04:59:54;4.78;;;3.00;;
25615;SDS011;13482;48.234;13.006;2023-05-10T05:02:21;3.78;;;2.75;;
25615;SDS011;13482;48.234;13.006;2023-05-10T05:04:49;3.78;;;2.53;;
25615;SDS011;13482;48.234;13.006;2023-05-10T05:07:17;2.65;;;2.25;;
25615;SDS011;13482;48.234;13.006;2023-05-10T05:09:44;2.58;;;2.05;;
25615;SDS011;13482;48.234;13.006;2023-05-10T05:12:11;2.83;;;2.38;;
25615;SDS011;13482;48.234;13.006;2023-05-10T05:14:40;3.03;;;2.25;;
25615;SDS011;13482;48.234;13.006;2023-05-10T05:17:07;2.58;;;1.90;;
25615;SDS011;13482;48.234;13.006;2023-05-10T05:19:35;2.17;;;1.77;;
25615;SDS011;13482;48.234;13.006;2023-05-10T05:22:02;2.47;;;1.85;;
25615;SDS011;13482;48.234;13.006;2023-05-10T05:24:29;3.38;;;1.90;;
25615;SDS011;13482;48.234;13.006;2023-05-10T05:27:01;2.80;;;1.27;;
25615;SDS011;13482;48.234;13.006;2023-05-10T05:29:29;1.83;;;1.35;;
25615;SDS011;13482;48.234;13.006;2023-05-10T05:31:56;1.50;;;1.00;;
25615;SDS011;13482;48.234;13.006;2023-05-10T05:34:23;2.03;;;0.70;;
25615;SDS011;13482;48.234;13.006;2023-05-10T05:36:50;1.00;;;0.68;;
25615;SDS011;13482;48.234;13.006;2023-05-10T05:39:18;0.93;;;0.50;;
25615;SDS011;13482;48.234;13.006;2023-05-10T05:41:45;2.83;;;0.82;;
25615;SDS011;13482;48.234;13.006;2023-05-10T05:44:12;2.53;;;1.40;;
25615;SDS011;13482;48.234;13.006;2023-05-10T05:46:39;2.47;;;1.60;;
25615;SDS011;13482;48.234;13.006;2023-05-10T05:49:06;3.20;;;2.08;;
25615;SDS011;13482;48.234;13.006;2023-05-10T05:51:33;2.97;;;1.90;;
25615;SDS011;13482;48.234;13.006;2023-05-10T05:54:01;2.50;;;1.83;;
25615;SDS011;13482;48.234;13.006;2023-05-10T05:56:30;3.70;;;1.75;;
25615;SDS011;13482;48.234;13.006;2023-05-10T05:58:57;2.90;;;1.83;;
25615;SDS011;13482;48.234;13.006;2023-05-10T06:01:24;1.77;;;1.20;;
25615;SDS011;13482;48.234;13.006;2023-05-10T06:03:51;1.77;;;1.05;;
25615;SDS011;13482;48.234;13.006;2023-05-10T06:06:19;1.30;;;0.75;;
25615;SDS011;13482;48.234;13.006;2023-05-10T06:08:46;1.10;;;0.57;;
25615;SDS011;13482;48.234;13.006;2023-05-10T06:11:13;0.68;;;0.35;;
25615;SDS011;13482;48.234;13.006;2023-05-10T06:13:40;0.52;;;0.30;;
25615;SDS011;13482;48.234;13.006;2023-05-10T06:16:08;1.10;;;0.17;;
25615;SDS011;13482;48.234;13.006;2023-05-10T06:18:35;0.50;;;0.20;;
25615;SDS011;13482;48.234;13.006;2023-05-10T06:21:03;0.40;;;0.20;;
25615;SDS011;13482;48.234;13.006;2023-05-10T06:23:30;0.20;;;0.10;;
25615;SDS011;13482;48.234;13.006;2023-05-10T06:25:57;0.28;;;0.10;;
25615;SDS011;13482;48.234;13.006;2023-05-10T06:28:24;0.32;;;0.15;;
25615;SDS011;13482;48.234;13.006;2023-05-10T06:30:51;0.10;;;0.10;;
25615;SDS011;13482;48.234;13.006;2023-05-10T06:33:19;0.47;;;0.13;;
25615;SDS011;13482;48.234;13.006;2023-05-10T06:35:46;0.05;;;0.05;;
25615;SDS011;13482;48.234;13.006;2023-05-10T06:38:13;0.55;;;0.15;;
25615;SDS011;13482;48.234;13.006;2023-05-10T06:40:43;0.28;;;0.13;;
25615;SDS011;13482;48.234;13.006;2023-05-10T06:43:10;0.20;;;0.08;;
25615;SDS011;13482;48.234;13.006;2023-05-10T06:45:37;0.40;;;0.20;;
25615;SDS011;13482;48.234;13.006;2023-05-10T06:48:04;0.10;;;0.10;;
25615;SDS011;13482;48.234;13.006;2023-05-10T06:50:31;0.32;;;0.10;;
25615;SDS011;13482;48.234;13.006;2023-05-10T06:52:59;0.30;;;0.10;;
25615;SDS011;13482;48.234;13.006;2023-05-10T06:55:28;0.20;;;0.10;;
25615;SDS011;13482;48.234;13.006;2023-05-10T06:57:55;0.10;;;0.10;;
25615;SDS011;13482;48.234;13.006;2023-05-10T07:00:22;0.30;;;0.17;;
25615;SDS011;13482;48.234;13.006;2023-05-10T07:02:49;1.17;;;0.50;;
25615;SDS011;13482;48.234;13.006;2023-05-10T07:05:17;0.15;;;0.10;;
25615;SDS011;13482;48.234;13.006;2023-05-10T07:07:45;0.70;;;0.20;;
25615;SDS011;13482;48.234;13.006;2023-05-10T07:10:12;0.28;;;0.10;;
25615;SDS011;13482;48.234;13.006;2023-05-10T07:12:39;0.43;;;0.10;;
25615;SDS011;13482;48.234;13.006;2023-05-10T07:15:07;0.10;;;0.10;;
25615;SDS011;13482;48.234;13.006;2023-05-10T07:17:35;0.50;;;0.20;;
25615;SDS011;13482;48.234;13.006;2023-05-10T07:20:02;0.45;;;0.20;;
25615;SDS011;13482;48.234;13.006;2023-05-10T07:22:29;0.10;;;0.10;;
25615;SDS011;13482;48.234;13.006;2023-05-10T07:24:56;0.20;;;0.10;;
25615;SDS011;13482;48.234;13.006;2023-05-10T07:27:24;0.43;;;0.10;;
25615;SDS011;13482;48.234;13.006;2023-05-10T07:29:51;4.35;;;0.20;;
25615;SDS011;13482;48.234;13.006;2023-05-10T07:32:18;0.10;;;0.05;;
25615;SDS011;13482;48.234;13.006;2023-05-10T07:34:45;0.20;;;0.00;;
25615;SDS011;13482;48.234;13.006;2023-05-10T07:37:12;0.28;;;0.10;;
25615;SDS011;13482;48.234;13.006;2023-05-10T07:39:39;0.25;;;0.10;;
25615;SDS011;13482;48.234;13.006;2023-05-10T07:42:06;0.08;;;0.03;;
25615;SDS011;13482;48.234;13.006;2023-05-10T07:44:34;0.20;;;0.10;;
25615;SDS011;13482;48.234;13.006;2023-05-10T07:47:01;0.20;;;0.10;;
25615;SDS011;13482;48.234;13.006;2023-05-10T07:49:28;0.20;;;0.10;;
25615;SDS011;13482;48.234;13.006;2023-05-10T07:51:56;0.75;;;0.10;;
25615;SDS011;13482;48.234;13.006;2023-05-10T07:54:23;0.45;;;0.13;;
25615;SDS011;13482;48.234;13.006;2023-05-10T07:56:50;0.93;;;0.20;;
25615;SDS011;13482;48.234;13.006;2023-05-10T07:59:17;0.52;;;0.05;;
25615;SDS011;13482;48.234;13.006;2023-05-10T08:01:44;0.95;;;0.10;;
25615;SDS011;13482;48.234;13.006;2023-05-10T08:04:12;0.32;;;0.10;;
25615;SDS011;13482;48.234;13.006;2023-05-10T08:06:39;0.10;;;0.10;;
25615;SDS011;13482;48.234;13.006;2023-05-10T08:09:07;0.85;;;0.38;;
25615;SDS011;13482;48.234;13.006;2023-05-10T08:11:34;0.82;;;0.30;;
25615;SDS011;13482;48.234;13.006;2023-05-10T08:14:01;0.82;;;0.40;;
25615;SDS011;13482;48.234;13.006;2023-05-10T08:16:29;0.88;;;0.40;;
25615;SDS011;13482;48.234;13.006;2023-05-10T08:18:56;0.65;;;0.30;;
25615;SDS011;13482;48.234;13.006;2023-05-10T08:21:23;0.50;;;0.25;;
25615;SDS011;13482;48.234;13.006;2023-05-10T08:23:52;0.95;;;0.30;;
25615;SDS011;13482;48.234;13.006;2023-05-10T08:26:19;0.90;;;0.30;;
25615;SDS011;13482;48.234;13.006;2023-05-10T08:28:47;0.30;;;0.20;;
25615;SDS011;13482;48.234;13.006;2023-05-10T08:31:15;0.70;;;0.30;;
25615;SDS011;13482;48.234;13.006;2023-05-10T08:33:43;2.28;;;0.50;;
25615;SDS011;13482;48.234;13.006;2023-05-10T08:36:10;0.95;;;0.35;;
25615;SDS011;13482;48.234;13.006;2023-05-10T08:38:40;1.60;;;0.40;;
25615;SDS011;13482;48.234;13.006;2023-05-10T08:41:07;0.85;;;0.47;;
25615;SDS011;13482;48.234;13.006;2023-05-10T08:43:35;2.83;;;0.35;;
25615;SDS011;13482;48.234;13.006;2023-05-10T08:46:03;2.78;;;0.73;;
25615;SDS011;13482;48.234;13.006;2023-05-10T08:48:33;2.25;;;0.50;;
25615;SDS011;13482;48.234;13.006;2023-05-10T08:51:01;0.40;;;0.40;;
25615;SDS011;13482;48.234;13.006;2023-05-10T08:53:31;0.50;;;0.30;;
25615;SDS011;13482;48.234;13.006;2023-05-10T08:56:01;0.50;;;0.38;;
25615;SDS011;13482;48.234;13.006;2023-05-10T08:58:30;1.00;;;0.40;;
25615;SDS011;13482;48.234;13.006;2023-05-10T09:00:58;0.80;;;0.50;;
25615;SDS011;13482;48.234;13.006;2023-05-10T09:03:26;1.95;;;0.50;;
25615;SDS011;13482;48.234;13.006;2023-05-10T09:05:53;0.98;;;0.50;;
25615;SDS011;13482;48.234;13.006;2023-05-10T09:08:24;0.70;;;0.50;;
25615;SDS011;13482;48.234;13.006;2023-05-10T09:10:53;1.50;;;0.40;;
25615;SDS011;13482;48.234;13.006;2023-05-10T09:13:22;0.93;;;0.50;;
25615;SDS011;13482;48.234;13.006;2023-05-10T09:15:50;0.43;;;0.40;;
25615;SDS011;13482;48.234;13.006;2023-05-10T09:18:18;0.43;;;0.38;;
25615;SDS011;13482;48.234;13.006;2023-05-10T09:20:45;0.73;;;0.50;;
25615;SDS011;13482;48.234;13.006;2023-05-10T09:23:12;1.60;;;0.47;;
25615;SDS011;13482;48.234;13.006;2023-05-10T09:25:41;0.55;;;0.40;;
25615;SDS011;13482;48.234;13.006;2023-05-10T09:28:08;1.38;;;0.40;;
25615;SDS011;13482;48.234;13.006;2023-05-10T09:30:36;0.40;;;0.30;;
25615;SDS011;13482;48.234;13.006;2023-05-10T09:33:03;0.20;;;0.20;;
25615;SDS011;13482;48.234;13.006;2023-05-10T09:35:31;1.10;;;0.30;;
25615;SDS011;13482;48.234;13.006;2023-05-10T09:38:02;0.40;;;0.22;;
25615;SDS011;13482;48.234;13.006;2023-05-10T09:40:31;0.30;;;0.30;;
25615;SDS011;13482;48.234;13.006;2023-05-10T09:42:59;0.40;;;0.30;;
25615;SDS011;13482;48.234;13.006;2023-05-10T09:45:29;0.47;;;0.35;;
25615;SDS011;13482;48.234;13.006;2023-05-10T09:47:58;0.45;;;0.25;;
25615;SDS011;13482;48.234;13.006;2023-05-10T09:50:28;0.70;;;0.40;;
25615;SDS011;13482;48.234;13.006;2023-05-10T09:53:01;0.35;;;0.25;;
25615;SDS011;13482;48.234;13.006;2023-05-10T09:55:40;0.32;;;0.30;;
25615;SDS011;13482;48.234;13.006;2023-05-10T09:58:13;0.70;;;0.30;;
25615;SDS011;13482;48.234;13.006;2023-05-10T10:00:44;0.73;;;0.40;;
25615;SDS011;13482;48.234;13.006;2023-05-10T10:03:19;0.80;;;0.40;;
25615;SDS011;13482;48.234;13.006;2023-05-10T10:05:47;1.00;;;0.30;;
25615;SDS011;13482;48.234;13.006;2023-05-10T10:08:15;0.47;;;0.20;;
25615;SDS011;13482;48.234;13.006;2023-05-10T10:10:44;0.35;;;0.20;;
25615;SDS011;13482;48.234;13.006;2023-05-10T10:13:12;0.25;;;0.15;;
25615;SDS011;13482;48.234;13.006;2023-05-10T10:15:41;0.20;;;0.10;;
25615;SDS011;13482;48.234;13.006;2023-05-10T10:18:13;1.02;;;0.20;;
25615;SDS011;13482;48.234;13.006;2023-05-10T10:20:43;0.52;;;0.20;;
25615;SDS011;13482;48.234;13.006;2023-05-10T10:23:11;0.13;;;0.13;;
25615;SDS011;13482;48.234;13.006;2023-05-10T10:25:40;0.20;;;0.20;;
25615;SDS011;13482;48.234;13.006;2023-05-10T10:28:32;0.38;;;0.20;;
25615;SDS011;13482;48.234;13.006;2023-05-10T10:34:06;0.20;;;0.20;;
25615;SDS011;13482;48.234;13.006;2023-05-10T10:36:42;0.25;;;0.22;;
25615;SDS011;13482;48.234;13.006;2023-05-10T10:39:12;0.55;;;0.40;;
25615;SDS011;13482;48.234;13.006;2023-05-10T10:41:50;0.47;;;0.30;;
25615;SDS011;13482;48.234;13.006;2023-05-10T10:52:22;0.40;;;0.30;;
25615;SDS011;13482;48.234;13.006;2023-05-10T10:57:48;0.40;;;0.20;;
25615;SDS011;13482;48.234;13.006;2023-05-10T11:00:28;0.55;;;0.20;;
25615;SDS011;13482;48.234;13.006;2023-05-10T11:05:38;0.43;;;0.28;;
25615;SDS011;13482;48.234;13.006;2023-05-10T11:08:11;0.35;;;0.20;;
25615;SDS011;13482;48.234;13.006;2023-05-10T11:13:27;0.20;;;0.10;;
25615;SDS011;13482;48.234;13.006;2023-05-10T11:16:14;0.10;;;0.10;;
25615;SDS011;13482;48.234;13.006;2023-05-10T11:19:06;0.25;;;0.20;;
25615;SDS011;13482;48.234;13.006;2023-05-10T11:21:46;0.32;;;0.32;;
25615;SDS011;13482;48.234;13.006;2023-05-10T11:24:19;0.60;;;0.40;;
25615;SDS011;13482;48.234;13.006;2023-05-10T11:26:49;1.05;;;0.22;;
25615;SDS011;13482;48.234;13.006;2023-05-10T11:29:20;0.38;;;0.30;;
25615;SDS011;13482;48.234;13.006;2023-05-10T11:31:47;0.40;;;0.38;;
25615;SDS011;13482;48.234;13.006;2023-05-10T11:36:55;0.60;;;0.40;;
25615;SDS011;13482;48.234;13.006;2023-05-10T11:39:29;0.85;;;0.38;;
25615;SDS011;13482;48.234;13.006;2023-05-10T11:41:58;0.73;;;0.20;;
25615;SDS011;13482;48.234;13.006;2023-05-10T11:44:29;0.28;;;0.20;;
25615;SDS011;13482;48.234;13.006;2023-05-10T11:46:58;0.50;;;0.20;;
25615;SDS011;13482;48.234;13.006;2023-05-10T11:49:29;0.30;;;0.20;;
25615;SDS011;13482;48.234;13.006;2023-05-10T11:52:08;0.57;;;0.30;;
25615;SDS011;13482;48.234;13.006;2023-05-10T11:54:37;0.43;;;0.25;;
25615;SDS011;13482;48.234;13.006;2023-05-10T11:57:12;0.70;;;0.40;;
25615;SDS011;13482;48.234;13.006;2023-05-10T11:59:39;0.88;;;0.35;;
25615;SDS011;13482;48.234;13.006;2023-05-10T12:02:08;0.30;;;0.30;;
25615;SDS011;13482;48.234;13.006;2023-05-10T12:04:36;0.40;;;0.30;;
25615;SDS011;13482;48.234;13.006;2023-05-10T12:07:04;0.30;;;0.30;;
25615;SDS011;13482;48.234;13.006;2023-05-10T12:09:31;0.40;;;0.30;;
25615;SDS011;13482;48.234;13.006;2023-05-10T12:12:09;0.57;;;0.40;;
25615;SDS011;13482;48.234;13.006;2023-05-10T12:14:37;0.40;;;0.40;;
25615;SDS011;13482;48.234;13.006;2023-05-10T12:17:04;0.47;;;0.40;;
25615;SDS011;13482;48.234;13.006;2023-05-10T12:19:36;0.43;;;0.35;;
25615;SDS011;13482;48.234;13.006;2023-05-10T12:22:07;0.50;;;0.40;;
25615;SDS011;13482;48.234;13.006;2023-05-10T12:24:34;0.30;;;0.30;;
25615;SDS011;13482;48.234;13.006;2023-05-10T12:27:04;0.40;;;0.40;;
25615;SDS011;13482;48.234;13.006;2023-05-10T12:29:34;3.10;;;0.50;;
25615;SDS011;13482;48.234;13.006;2023-05-10T12:32:01;0.80;;;0.30;;
25615;SDS011;13482;48.234;13.006;2023-05-10T12:34:33;1.48;;;0.55;;
25615;SDS011;13482;48.234;13.006;2023-05-10T12:37:05;1.75;;;0.50;;
25615;SDS011;13482;48.234;13.006;2023-05-10T12:39:41;0.90;;;0.55;;
25615;SDS011;13482;48.234;13.006;2023-05-10T12:42:10;0.80;;;0.40;;
25615;SDS011;13482;48.234;13.006;2023-05-10T12:44:38;0.50;;;0.35;;
25615;SDS011;13482;48.234;13.006;2023-05-10T12:47:06;0.90;;;0.47;;
25615;SDS011;13482;48.234;13.006;2023-05-10T12:49:33;0.50;;;0.40;;
25615;SDS011;13482;48.234;13.006;2023-05-10T12:52:00;0.52;;;0.40;;
25615;SDS011;13482;48.234;13.006;2023-05-10T12:54:28;0.80;;;0.50;;
25615;SDS011;13482;48.234;13.006;2023-05-10T12:56:55;0.90;;;0.55;;
25615;SDS011;13482;48.234;13.006;2023-05-10T12:59:22;1.52;;;0.50;;
25615;SDS011;13482;48.234;13.006;2023-05-10T13:01:49;0.68;;;0.40;;
25615;SDS011;13482;48.234;13.006;2023-05-10T13:04:17;0.40;;;0.30;;
25615;SDS011;13482;48.234;13.006;2023-05-10T13:06:44;0.38;;;0.38;;
25615;SDS011;13482;48.234;13.006;2023-05-10T13:09:11;1.13;;;0.30;;
25615;SDS011;13482;48.234;13.006;2023-05-10T13:11:38;0.77;;;0.40;;
25615;SDS011;13482;48.234;13.006;2023-05-10T13:14:05;0.28;;;0.28;;
25615;SDS011;13482;48.234;13.006;2023-05-10T13:16:32;0.30;;;0.30;;
25615;SDS011;13482;48.234;13.006;2023-05-10T13:18:59;0.43;;;0.20;;
25615;SDS011;13482;48.234;13.006;2023-05-10T13:21:27;0.20;;;0.20;;
25615;SDS011;13482;48.234;13.006;2023-05-10T13:23:54;0.30;;;0.20;;
25615;SDS011;13482;48.234;13.006;2023-05-10T13:26:21;0.20;;;0.20;;
25615;SDS011;13482;48.234;13.006;2023-05-10T13:28:48;0.70;;;0.40;;
25615;SDS011;13482;48.234;13.006;2023-05-10T13:31:18;0.82;;;0.35;;
25615;SDS011;13482;48.234;13.006;2023-05-10T13:33:45;7.88;;;0.70;;
25615;SDS011;13482;48.234;13.006;2023-05-10T13:36:12;0.40;;;0.20;;
25615;SDS011;13482;48.234;13.006;2023-05-10T13:38:39;0.68;;;0.40;;
25615;SDS011;13482;48.234;13.006;2023-05-10T13:41:06;0.60;;;0.43;;
25615;SDS011;13482;48.234;13.006;2023-05-10T13:43:33;0.90;;;0.60;;
25615;SDS011;13482;48.234;13.006;2023-05-10T13:46:01;0.70;;;0.50;;
25615;SDS011;13482;48.234;13.006;2023-05-10T13:48:29;0.90;;;0.60;;
25615;SDS011;13482;48.234;13.006;2023-05-10T13:50:56;0.85;;;0.50;;
25615;SDS011;13482;48.234;13.006;2023-05-10T13:53:23;0.60;;;0.40;;
25615;SDS011;13482;48.234;13.006;2023-05-10T13:55:50;0.55;;;0.47;;
25615;SDS011;13482;48.234;13.006;2023-05-10T13:58:17;1.23;;;0.60;;
25615;SDS011;13482;48.234;13.006;2023-05-10T14:00:45;0.70;;;0.43;;
25615;SDS011;13482;48.234;13.006;2023-05-10T14:03:12;0.32;;;0.30;;
25615;SDS011;13482;48.234;13.006;2023-05-10T14:05:39;0.47;;;0.30;;
25615;SDS011;13482;48.234;13.006;2023-05-10T14:08:07;0.75;;;0.57;;
25615;SDS011;13482;48.234;13.006;2023-05-10T14:10:35;1.23;;;0.45;;
25615;SDS011;13482;48.234;13.006;2023-05-10T14:13:03;1.33;;;0.43;;
25615;SDS011;13482;48.234;13.006;2023-05-10T14:15:30;1.52;;;0.32;;
25615;SDS011;13482;48.234;13.006;2023-05-10T14:17:57;1.08;;;0.50;;
25615;SDS011;13482;48.234;13.006;2023-05-10T14:20:25;0.80;;;0.40;;
25615;SDS011;13482;48.234;13.006;2023-05-10T14:22:52;0.60;;;0.30;;
25615;SDS011;13482;48.234;13.006;2023-05-10T14:25:19;0.63;;;0.40;;
25615;SDS011;13482;48.234;13.006;2023-05-10T14:27:46;0.75;;;0.40;;
25615;SDS011;13482;48.234;13.006;2023-05-10T14:30:14;0.57;;;0.35;;
25615;SDS011;13482;48.234;13.006;2023-05-10T14:32:41;0.75;;;0.30;;
25615;SDS011;13482;48.234;13.006;2023-05-10T14:35:08;0.90;;;0.40;;
25615;SDS011;13482;48.234;13.006;2023-05-10T14:37:38;0.55;;;0.30;;
25615;SDS011;13482;48.234;13.006;2023-05-10T14:40:06;7.80;;;4.90;;
25615;SDS011;13482;48.234;13.006;2023-05-10T14:42:33;5.40;;;3.58;;
25615;SDS011;13482;48.234;13.006;2023-05-10T14:45:01;3.40;;;2.22;;
25615;SDS011;13482;48.234;13.006;2023-05-10T14:47:29;2.30;;;1.58;;
25615;SDS011;13482;48.234;13.006;2023-05-10T14:49:56;1.60;;;0.90;;
25615;SDS011;13482;48.234;13.006;2023-05-10T14:52:24;0.80;;;0.60;;
25615;SDS011;13482;48.234;13.006;2023-05-10T14:54:52;0.50;;;0.40;;
25615;SDS011;13482;48.234;13.006;2023-05-10T14:57:19;0.60;;;0.40;;
25615;SDS011;13482;48.234;13.006;2023-05-10T14:59:46;0.57;;;0.40;;
25615;SDS011;13482;48.234;13.006;2023-05-10T15:02:14;0.73;;;0.35;;
25615;SDS011;13482;48.234;13.006;2023-05-10T15:04:43;0.52;;;0.40;;
25615;SDS011;13482;48.234;13.006;2023-05-10T15:07:10;0.90;;;0.50;;
25615;SDS011;13482;48.234;13.006;2023-05-10T15:09:40;1.00;;;0.55;;
25615;SDS011;13482;48.234;13.006;2023-05-10T15:12:07;2.10;;;1.02;;
25615;SDS011;13482;48.234;13.006;2023-05-10T15:14:34;1.65;;;0.90;;
25615;SDS011;13482;48.234;13.006;2023-05-10T15:17:02;2.47;;;1.05;;
25615;SDS011;13482;48.234;13.006;2023-05-10T15:19:32;1.73;;;0.80;;
25615;SDS011;13482;48.234;13.006;2023-05-10T15:21:59;0.93;;;0.70;;
25615;SDS011;13482;48.234;13.006;2023-05-10T15:24:26;0.68;;;0.40;;
25615;SDS011;13482;48.234;13.006;2023-05-10T15:26:54;0.68;;;0.40;;
25615;SDS011;13482;48.234;13.006;2023-05-10T15:29:21;0.93;;;0.45;;